sensor_id;sensor_type;location;lat;lon;timestamp;pressure;altitude;pressure_sealevel;temperature;humidity
60817;BME280;51921;51.518;-3.188;2022-10-14T00:00:49;101004.43;;;14.16;71.73
60817;BME280;51921;51.518;-3.188;2022-10-14T00:03:14;100999.09;;;14.48;72.39
60817;BME280;51921;51.518;-3.188;2022-10-14T00:05:41;100995.13;;;14.07;72.67
60817;BME280;51921;51.518;-3.188;2022-10-14T00:08:05;100991.43;;;14.83;71.05
60817;BME280;51921;51.518;-3.188;2022-10-14T00:10:31;100986.94;;;15.02;69.97
60817;BME280;51921;51.518;-3.188;2022-10-14T00:12:56;100983.69;;;14.89;71.27
60817;BME280;51921;51.518;-3.188;2022-10-14T00:15:22;100980.91;;;15.17;69.33
60817;BME280;51921;51.518;-3.188;2022-10-14T00:17:47;100981.65;;;16.65;64.64
60817;BME280;51921;51.518;-3.188;2022-10-14T00:20:12;100980.67;;;14.28;70.74
60817;BME280;51921;51.518;-3.188;2022-10-14T00:22:38;100977.88;;;15.53;67.72
60817;BME280;51921;51.518;-3.188;2022-10-14T00:25:04;100972.86;;;14.56;70.71
60817;BME280;51921;51.518;-3.188;2022-10-14T00:27:28;100968.62;;;14.45;70.97
60817;BME280;51921;51.518;-3.188;2022-10-14T00:29:53;100969.58;;;14.92;70.54
60817;BME280;51921;51.518;-3.188;2022-10-14T00:32:19;100967.00;;;14.00;71.31
60817;BME280;51921;51.518;-3.188;2022-10-14T00:34:44;100969.70;;;14.92;69.12
60817;BME280;51921;51.518;-3.188;2022-10-14T00:37:10;100968.44;;;15.10;68.56
60817;BME280;51921;51.518;-3.188;2022-10-14T00:39:35;100956.61;;;16.36;64.70
60817;BME280;51921;51.518;-3.188;2022-10-14T00:42:00;100953.85;;;16.99;62.20
60817;BME280;51921;51.518;-3.188;2022-10-14T00:46:52;100957.38;;;15.91;66.05
60817;BME280;51921;51.518;-3.188;2022-10-14T00:49:19;100954.91;;;15.50;68.23
60817;BME280;51921;51.518;-3.188;2022-10-14T00:51:44;100948.08;;;14.68;70.75
60817;BME280;51921;51.518;-3.188;2022-10-14T00:54:08;100945.46;;;14.49;72.45
60817;BME280;51921;51.518;-3.188;2022-10-14T00:56:34;100947.47;;;16.07;68.12
60817;BME280;51921;51.518;-3.188;2022-10-14T00:58:59;100952.57;;;15.08;71.04
60817;BME280;51921;51.518;-3.188;2022-10-14T01:01:24;100952.08;;;14.55;72.19
60817;BME280;51921;51.518;-3.188;2022-10-14T01:03:49;100947.48;;;15.54;68.48
60817;BME280;51921;51.518;-3.188;2022-10-14T01:06:22;100938.50;;;14.39;72.73
60817;BME280;51921;51.518;-3.188;2022-10-14T01:08:46;100935.05;;;14.63;71.90
60817;BME280;51921;51.518;-3.188;2022-10-14T01:11:09;100936.17;;;14.82;71.65
60817;BME280;51921;51.518;-3.188;2022-10-14T01:13:32;100940.25;;;14.55;71.02
60817;BME280;51921;51.518;-3.188;2022-10-14T01:16:03;100945.40;;;14.69;71.57
60817;BME280;51921;51.518;-3.188;2022-10-14T01:18:33;100946.59;;;15.36;68.55
60817;BME280;51921;51.518;-3.188;2022-10-14T01:20:59;100937.38;;;14.63;71.32
60817;BME280;51921;51.518;-3.188;2022-10-14T01:25:45;100926.91;;;14.79;72.42
60817;BME280;51921;51.518;-3.188;2022-10-14T01:28:14;100920.97;;;14.36;73.77
60817;BME280;51921;51.518;-3.188;2022-10-14T01:30:29;100913.58;;;14.46;73.35
60817;BME280;51921;51.518;-3.188;2022-10-14T01:33:03;100909.64;;;14.05;74.02
60817;BME280;51921;51.518;-3.188;2022-10-14T01:35:27;100905.34;;;13.84;75.19
60817;BME280;51921;51.518;-3.188;2022-10-14T01:37:48;100900.08;;;13.94;74.96
60817;BME280;51921;51.518;-3.188;2022-10-14T01:40:18;100897.82;;;14.41;74.76
60817;BME280;51921;51.518;-3.188;2022-10-14T01:42:38;100899.91;;;13.63;76.87
60817;BME280;51921;51.518;-3.188;2022-10-14T01:45:06;100891.16;;;13.74;77.20
60817;BME280;51921;51.518;-3.188;2022-10-14T01:47:28;100887.04;;;13.48;79.11
60817;BME280;51921;51.518;-3.188;2022-10-14T01:49:56;100888.43;;;14.24;75.88
60817;BME280;51921;51.518;-3.188;2022-10-14T01:52:20;100885.06;;;14.53;74.13
60817;BME280;51921;51.518;-3.188;2022-10-14T01:54:43;100872.38;;;14.46;75.72
60817;BME280;51921;51.518;-3.188;2022-10-14T01:57:10;100871.98;;;14.61;75.65
60817;BME280;51921;51.518;-3.188;2022-10-14T01:59:35;100883.57;;;14.19;75.33
60817;BME280;51921;51.518;-3.188;2022-10-14T02:01:59;100883.37;;;14.12;75.81
60817;BME280;51921;51.518;-3.188;2022-10-14T02:04:24;100887.86;;;13.86;78.74
60817;BME280;51921;51.518;-3.188;2022-10-14T02:06:57;100894.52;;;12.59;82.95
60817;BME280;51921;51.518;-3.188;2022-10-14T02:09:20;100889.94;;;13.66;80.71
60817;BME280;51921;51.518;-3.188;2022-10-14T02:11:47;100882.10;;;14.23;78.48
60817;BME280;51921;51.518;-3.188;2022-10-14T02:14:14;100874.80;;;14.45;77.07
60817;BME280;51921;51.518;-3.188;2022-10-14T02:16:37;100875.42;;;13.84;79.27
60817;BME280;51921;51.518;-3.188;2022-10-14T02:19:01;100882.18;;;14.27;77.77
60817;BME280;51921;51.518;-3.188;2022-10-14T02:21:25;100883.50;;;14.16;77.73
60817;BME280;51921;51.518;-3.188;2022-10-14T02:23:50;100885.80;;;14.20;76.77
60817;BME280;51921;51.518;-3.188;2022-10-14T02:26:14;100879.92;;;13.09;81.96
60817;BME280;51921;51.518;-3.188;2022-10-14T02:28:40;100880.09;;;14.45;76.93
60817;BME280;51921;51.518;-3.188;2022-10-14T02:31:06;100869.76;;;14.42;75.71
60817;BME280;51921;51.518;-3.188;2022-10-14T02:33:31;100866.15;;;14.67;74.64
60817;BME280;51921;51.518;-3.188;2022-10-14T02:35:55;100863.16;;;14.67;75.01
60817;BME280;51921;51.518;-3.188;2022-10-14T02:38:20;100857.70;;;14.89;73.71
60817;BME280;51921;51.518;-3.188;2022-10-14T02:40:47;100852.00;;;14.79;74.54
60817;BME280;51921;51.518;-3.188;2022-10-14T02:43:11;100851.60;;;14.36;75.07
60817;BME280;51921;51.518;-3.188;2022-10-14T02:45:36;100845.92;;;15.01;74.29
60817;BME280;51921;51.518;-3.188;2022-10-14T02:48:02;100842.99;;;15.30;72.99
60817;BME280;51921;51.518;-3.188;2022-10-14T02:50:27;100838.04;;;15.40;71.83
60817;BME280;51921;51.518;-3.188;2022-10-14T02:52:52;100837.96;;;14.92;72.61
60817;BME280;51921;51.518;-3.188;2022-10-14T02:55:18;100831.79;;;15.27;72.20
60817;BME280;51921;51.518;-3.188;2022-10-14T02:57:43;100826.52;;;15.95;70.68
60817;BME280;51921;51.518;-3.188;2022-10-14T03:00:10;100829.13;;;14.72;70.85
60817;BME280;51921;51.518;-3.188;2022-10-14T03:02:34;100826.85;;;15.41;71.05
60817;BME280;51921;51.518;-3.188;2022-10-14T03:04:59;100820.22;;;15.64;70.82
60817;BME280;51921;51.518;-3.188;2022-10-14T03:07:25;100816.72;;;15.75;69.64
60817;BME280;51921;51.518;-3.188;2022-10-14T03:09:50;100811.96;;;15.89;68.73
60817;BME280;51921;51.518;-3.188;2022-10-14T03:12:16;100805.24;;;15.98;69.01
60817;BME280;51921;51.518;-3.188;2022-10-14T03:14:41;100798.35;;;15.05;70.76
60817;BME280;51921;51.518;-3.188;2022-10-14T03:17:06;100792.12;;;15.39;70.92
60817;BME280;51921;51.518;-3.188;2022-10-14T03:19:32;100785.85;;;14.82;71.13
60817;BME280;51921;51.518;-3.188;2022-10-14T03:21:57;100775.46;;;15.09;71.19
60817;BME280;51921;51.518;-3.188;2022-10-14T03:24:22;100774.93;;;15.32;70.94
60817;BME280;51921;51.518;-3.188;2022-10-14T03:26:48;100780.05;;;14.54;73.13
60817;BME280;51921;51.518;-3.188;2022-10-14T03:29:13;100780.55;;;14.31;74.44
60817;BME280;51921;51.518;-3.188;2022-10-14T03:31:39;100778.15;;;14.16;75.65
60817;BME280;51921;51.518;-3.188;2022-10-14T03:34:04;100775.90;;;13.85;78.13
60817;BME280;51921;51.518;-3.188;2022-10-14T03:36:29;100772.60;;;14.26;76.98
60817;BME280;51921;51.518;-3.188;2022-10-14T03:38:55;100770.07;;;14.80;75.57
60817;BME280;51921;51.518;-3.188;2022-10-14T03:41:20;100771.27;;;13.96;77.38
60817;BME280;51921;51.518;-3.188;2022-10-14T03:43:46;100768.29;;;13.73;77.99
60817;BME280;51921;51.518;-3.188;2022-10-14T03:46:11;100759.16;;;14.81;75.71
60817;BME280;51921;51.518;-3.188;2022-10-14T03:48:38;100754.97;;;13.34;80.23
60817;BME280;51921;51.518;-3.188;2022-10-14T03:51:02;100758.95;;;13.44;81.93
60817;BME280;51921;51.518;-3.188;2022-10-14T03:53:27;100756.89;;;13.30;81.14
60817;BME280;51921;51.518;-3.188;2022-10-14T03:55:53;100752.03;;;13.33;80.32
60817;BME280;51921;51.518;-3.188;2022-10-14T03:58:18;100751.80;;;13.99;80.22
60817;BME280;51921;51.518;-3.188;2022-10-14T04:00:43;100741.26;;;13.33;80.96
60817;BME280;51921;51.518;-3.188;2022-10-14T04:03:09;100737.61;;;12.23;88.48
60817;BME280;51921;51.518;-3.188;2022-10-14T04:05:34;100738.35;;;13.02;86.65
60817;BME280;51921;51.518;-3.188;2022-10-14T04:08:00;100734.08;;;13.08;88.83
60817;BME280;51921;51.518;-3.188;2022-10-14T04:10:25;100732.28;;;11.68;95.47
60817;BME280;51921;51.518;-3.188;2022-10-14T04:12:51;100728.32;;;12.47;93.54
60817;BME280;51921;51.518;-3.188;2022-10-14T04:15:15;100733.12;;;12.45;91.70
60817;BME280;51921;51.518;-3.188;2022-10-14T04:17:41;100735.62;;;12.54;93.06
60817;BME280;51921;51.518;-3.188;2022-10-14T04:20:07;100730.62;;;13.05;90.23
60817;BME280;51921;51.518;-3.188;2022-10-14T04:22:32;100730.74;;;13.45;88.15
60817;BME280;51921;51.518;-3.188;2022-10-14T04:24:57;100727.94;;;12.71;91.76
60817;BME280;51921;51.518;-3.188;2022-10-14T04:27:23;100727.28;;;12.37;95.07
60817;BME280;51921;51.518;-3.188;2022-10-14T04:29:49;100719.08;;;12.51;93.53
60817;BME280;51921;51.518;-3.188;2022-10-14T04:32:13;100718.87;;;12.45;95.61
60817;BME280;51921;51.518;-3.188;2022-10-14T04:34:39;100716.80;;;11.84;98.77
60817;BME280;51921;51.518;-3.188;2022-10-14T04:37:04;100720.75;;;12.01;100.00
60817;BME280;51921;51.518;-3.188;2022-10-14T04:39:30;100717.54;;;12.46;97.94
60817;BME280;51921;51.518;-3.188;2022-10-14T04:41:55;100716.75;;;12.56;99.19
60817;BME280;51921;51.518;-3.188;2022-10-14T04:44:21;100716.16;;;12.49;98.94
60817;BME280;51921;51.518;-3.188;2022-10-14T04:46:46;100718.86;;;11.73;100.00
60817;BME280;51921;51.518;-3.188;2022-10-14T04:49:12;100709.38;;;12.52;98.97
60817;BME280;51921;51.518;-3.188;2022-10-14T04:51:37;100706.93;;;12.41;99.77
60817;BME280;51921;51.518;-3.188;2022-10-14T04:54:03;100709.05;;;12.38;100.00
60817;BME280;51921;51.518;-3.188;2022-10-14T04:56:28;100704.50;;;12.28;100.00
60817;BME280;51921;51.518;-3.188;2022-10-14T04:58:54;100703.58;;;11.30;100.00
60817;BME280;51921;51.518;-3.188;2022-10-14T05:01:19;100698.55;;;11.93;100.00
60817;BME280;51921;51.518;-3.188;2022-10-14T05:03:45;100697.30;;;11.86;100.00
60817;BME280;51921;51.518;-3.188;2022-10-14T05:06:10;100695.28;;;11.17;100.00
60817;BME280;51921;51.518;-3.188;2022-10-14T05:08:36;100695.33;;;11.04;100.00
60817;BME280;51921;51.518;-3.188;2022-10-14T05:11:01;100695.24;;;10.45;100.00
60817;BME280;51921;51.518;-3.188;2022-10-14T05:13:27;100701.29;;;11.39;100.00
60817;BME280;51921;51.518;-3.188;2022-10-14T05:15:52;100698.85;;;11.32;100.00
60817;BME280;51921;51.518;-3.188;2022-10-14T05:18:17;100695.10;;;11.84;100.00
60817;BME280;51921;51.518;-3.188;2022-10-14T05:20:43;100695.07;;;11.60;100.00
60817;BME280;51921;51.518;-3.188;2022-10-14T05:23:08;100692.57;;;11.88;100.00
60817;BME280;51921;51.518;-3.188;2022-10-14T05:25:34;100693.64;;;11.97;100.00
60817;BME280;51921;51.518;-3.188;2022-10-14T05:27:59;100690.90;;;12.75;100.00
60817;BME280;51921;51.518;-3.188;2022-10-14T05:30:25;100693.91;;;12.44;100.00
60817;BME280;51921;51.518;-3.188;2022-10-14T05:32:50;100693.15;;;12.37;100.00
60817;BME280;51921;51.518;-3.188;2022-10-14T05:35:16;100695.32;;;12.56;100.00
60817;BME280;51921;51.518;-3.188;2022-10-14T05:37:41;100698.15;;;12.74;100.00
60817;BME280;51921;51.518;-3.188;2022-10-14T05:40:08;100693.84;;;12.74;100.00
60817;BME280;51921;51.518;-3.188;2022-10-14T05:42:32;100688.18;;;13.41;99.93
60817;BME280;51921;51.518;-3.188;2022-10-14T05:44:57;100689.40;;;12.96;99.67
60817;BME280;51921;51.518;-3.188;2022-10-14T05:47:23;100686.71;;;13.16;96.50
60817;BME280;51921;51.518;-3.188;2022-10-14T05:49:48;100683.39;;;12.79;98.76
60817;BME280;51921;51.518;-3.188;2022-10-14T05:52:14;100676.35;;;13.93;93.88
60817;BME280;51921;51.518;-3.188;2022-10-14T05:54:39;100673.29;;;14.16;91.16
60817;BME280;51921;51.518;-3.188;2022-10-14T05:57:04;100677.80;;;13.61;92.42
60817;BME280;51921;51.518;-3.188;2022-10-14T05:59:30;100677.14;;;13.08;94.49
60817;BME280;51921;51.518;-3.188;2022-10-14T06:01:55;100677.68;;;13.64;93.43
60817;BME280;51921;51.518;-3.188;2022-10-14T06:04:23;100678.11;;;13.86;92.75
60817;BME280;51921;51.518;-3.188;2022-10-14T06:06:46;100672.24;;;12.47;99.56
60817;BME280;51921;51.518;-3.188;2022-10-14T06:09:12;100671.92;;;12.41;100.00
60817;BME280;51921;51.518;-3.188;2022-10-14T06:11:37;100671.22;;;12.96;100.00
60817;BME280;51921;51.518;-3.188;2022-10-14T06:14:02;100675.59;;;12.16;100.00
60817;BME280;51921;51.518;-3.188;2022-10-14T06:16:30;100676.36;;;11.11;100.00
60817;BME280;51921;51.518;-3.188;2022-10-14T06:18:56;100673.68;;;11.16;100.00
60817;BME280;51921;51.518;-3.188;2022-10-14T06:21:21;100670.80;;;11.08;100.00
60817;BME280;51921;51.518;-3.188;2022-10-14T06:23:44;100669.69;;;11.16;100.00
60817;BME280;51921;51.518;-3.188;2022-10-14T06:26:10;100673.85;;;11.43;100.00
60817;BME280;51921;51.518;-3.188;2022-10-14T06:28:36;100673.95;;;11.48;100.00
60817;BME280;51921;51.518;-3.188;2022-10-14T06:31:01;100672.69;;;11.43;100.00
60817;BME280;51921;51.518;-3.188;2022-10-14T06:33:27;100669.55;;;11.02;100.00
60817;BME280;51921;51.518;-3.188;2022-10-14T06:35:51;100669.47;;;11.57;100.00
60817;BME280;51921;51.518;-3.188;2022-10-14T06:38:17;100675.40;;;11.43;100.00
60817;BME280;51921;51.518;-3.188;2022-10-14T06:40:42;100676.30;;;11.41;100.00
60817;BME280;51921;51.518;-3.188;2022-10-14T06:43:08;100672.67;;;11.86;100.00
60817;BME280;51921;51.518;-3.188;2022-10-14T06:45:33;100674.20;;;11.25;100.00
60817;BME280;51921;51.518;-3.188;2022-10-14T06:47:59;100676.83;;;11.86;100.00
60817;BME280;51921;51.518;-3.188;2022-10-14T06:50:24;100680.16;;;10.26;100.00
60817;BME280;51921;51.518;-3.188;2022-10-14T06:52:50;100675.14;;;10.76;100.00
60817;BME280;51921;51.518;-3.188;2022-10-14T06:55:16;100679.33;;;10.88;100.00
60817;BME280;51921;51.518;-3.188;2022-10-14T06:57:40;100685.35;;;10.80;100.00
60817;BME280;51921;51.518;-3.188;2022-10-14T07:00:07;100685.93;;;10.91;100.00
60817;BME280;51921;51.518;-3.188;2022-10-14T07:02:32;100687.53;;;11.19;100.00
60817;BME280;51921;51.518;-3.188;2022-10-14T07:04:57;100697.86;;;11.95;100.00
60817;BME280;51921;51.518;-3.188;2022-10-14T07:07:22;100699.54;;;11.60;100.00
60817;BME280;51921;51.518;-3.188;2022-10-14T07:09:48;100704.92;;;10.67;100.00
60817;BME280;51921;51.518;-3.188;2022-10-14T07:12:13;100703.86;;;11.84;100.00
60817;BME280;51921;51.518;-3.188;2022-10-14T07:14:39;100706.25;;;11.24;100.00
60817;BME280;51921;51.518;-3.188;2022-10-14T07:17:06;100699.18;;;11.55;100.00
60817;BME280;51921;51.518;-3.188;2022-10-14T07:19:30;100693.47;;;12.39;97.66
60817;BME280;51921;51.518;-3.188;2022-10-14T07:21:55;100696.16;;;11.12;100.00
60817;BME280;51921;51.518;-3.188;2022-10-14T07:24:21;100690.03;;;13.04;95.06
60817;BME280;51921;51.518;-3.188;2022-10-14T07:26:46;100690.97;;;11.37;97.99
60817;BME280;51921;51.518;-3.188;2022-10-14T07:29:12;100687.31;;;11.78;100.00
60817;BME280;51921;51.518;-3.188;2022-10-14T07:31:37;100685.99;;;12.44;96.32
60817;BME280;51921;51.518;-3.188;2022-10-14T07:34:03;100686.45;;;12.16;99.25
60817;BME280;51921;51.518;-3.188;2022-10-14T07:36:28;100686.49;;;11.97;99.50
60817;BME280;51921;51.518;-3.188;2022-10-14T07:38:53;100687.13;;;12.46;97.72
60817;BME280;51921;51.518;-3.188;2022-10-14T07:41:22;100693.72;;;12.18;97.50
60817;BME280;51921;51.518;-3.188;2022-10-14T07:43:45;100700.60;;;12.82;96.38
60817;BME280;51921;51.518;-3.188;2022-10-14T07:46:10;100706.16;;;12.03;98.15
60817;BME280;51921;51.518;-3.188;2022-10-14T07:48:35;100701.77;;;12.00;98.09
60817;BME280;51921;51.518;-3.188;2022-10-14T07:51:00;100705.24;;;10.97;100.00
60817;BME280;51921;51.518;-3.188;2022-10-14T07:53:26;100703.22;;;11.63;100.00
60817;BME280;51921;51.518;-3.188;2022-10-14T07:55:52;100703.68;;;11.53;100.00
60817;BME280;51921;51.518;-3.188;2022-10-14T07:58:18;100711.92;;;10.59;100.00
60817;BME280;51921;51.518;-3.188;2022-10-14T08:00:42;100710.27;;;11.34;100.00
60817;BME280;51921;51.518;-3.188;2022-10-14T08:03:07;100715.06;;;11.76;100.00
60817;BME280;51921;51.518;-3.188;2022-10-14T08:05:33;100721.97;;;10.99;100.00
60817;BME280;51921;51.518;-3.188;2022-10-14T08:07:58;100719.63;;;12.18;99.20
60817;BME280;51921;51.518;-3.188;2022-10-14T08:10:24;100715.91;;;10.96;100.00
60817;BME280;51921;51.518;-3.188;2022-10-14T08:12:49;100709.09;;;11.22;100.00
60817;BME280;51921;51.518;-3.188;2022-10-14T08:15:15;100714.22;;;11.31;100.00
60817;BME280;51921;51.518;-3.188;2022-10-14T08:17:40;100716.17;;;11.63;100.00
60817;BME280;51921;51.518;-3.188;2022-10-14T08:20:06;100709.70;;;11.37;100.00
60817;BME280;51921;51.518;-3.188;2022-10-14T08:22:31;100701.74;;;12.15;100.00
60817;BME280;51921;51.518;-3.188;2022-10-14T08:24:56;100706.41;;;11.54;100.00
60817;BME280;51921;51.518;-3.188;2022-10-14T08:27:22;100713.46;;;11.58;100.00
60817;BME280;51921;51.518;-3.188;2022-10-14T08:29:47;100716.17;;;11.36;100.00
60817;BME280;51921;51.518;-3.188;2022-10-14T08:32:13;100715.09;;;12.40;99.44
60817;BME280;51921;51.518;-3.188;2022-10-14T08:34:38;100712.77;;;12.34;97.81
60817;BME280;51921;51.518;-3.188;2022-10-14T08:37:04;100710.38;;;12.09;99.50
60817;BME280;51921;51.518;-3.188;2022-10-14T08:39:29;100704.05;;;12.94;94.62
60817;BME280;51921;51.518;-3.188;2022-10-14T08:42:15;100705.89;;;12.58;95.74
60817;BME280;51921;51.518;-3.188;2022-10-14T08:44:22;100708.84;;;12.82;93.09
60817;BME280;51921;51.518;-3.188;2022-10-14T08:46:49;100709.54;;;13.03;91.95
60817;BME280;51921;51.518;-3.188;2022-10-14T08:49:16;100708.56;;;12.40;94.17
60817;BME280;51921;51.518;-3.188;2022-10-14T08:51:37;100707.86;;;13.03;92.08
60817;BME280;51921;51.518;-3.188;2022-10-14T08:54:05;100711.32;;;12.55;92.82
60817;BME280;51921;51.518;-3.188;2022-10-14T08:56:27;100712.78;;;12.22;94.27
60817;BME280;51921;51.518;-3.188;2022-10-14T08:58:53;100710.87;;;13.14;90.85
60817;BME280;51921;51.518;-3.188;2022-10-14T09:01:23;100714.92;;;13.16;91.51
60817;BME280;51921;51.518;-3.188;2022-10-14T09:03:43;100711.38;;;12.86;90.49
60817;BME280;51921;51.518;-3.188;2022-10-14T09:06:14;100707.38;;;14.28;87.35
60817;BME280;51921;51.518;-3.188;2022-10-14T09:08:38;100702.25;;;13.67;87.12
60817;BME280;51921;51.518;-3.188;2022-10-14T09:11:00;100696.56;;;12.70;91.42
60817;BME280;51921;51.518;-3.188;2022-10-14T09:13:29;100694.89;;;13.26;89.75
60817;BME280;51921;51.518;-3.188;2022-10-14T09:15:57;100692.79;;;14.29;84.91
60817;BME280;51921;51.518;-3.188;2022-10-14T09:18:22;100690.36;;;14.18;86.28
60817;BME280;51921;51.518;-3.188;2022-10-14T09:20:42;100681.06;;;14.77;83.72
60817;BME280;51921;51.518;-3.188;2022-10-14T09:23:15;100672.32;;;13.67;86.44
60817;BME280;51921;51.518;-3.188;2022-10-14T09:25:33;100668.32;;;13.83;87.31
60817;BME280;51921;51.518;-3.188;2022-10-14T09:27:58;100667.82;;;12.31;93.51
60817;BME280;51921;51.518;-3.188;2022-10-14T09:30:23;100676.82;;;12.74;93.74
60817;BME280;51921;51.518;-3.188;2022-10-14T09:32:50;100684.07;;;13.11;93.45
60817;BME280;51921;51.518;-3.188;2022-10-14T09:35:20;100687.58;;;13.29;92.12
60817;BME280;51921;51.518;-3.188;2022-10-14T09:37:39;100695.78;;;12.96;92.20
60817;BME280;51921;51.518;-3.188;2022-10-14T09:40:13;100701.57;;;11.96;97.64
60817;BME280;51921;51.518;-3.188;2022-10-14T09:42:41;100706.12;;;13.02;93.44
60817;BME280;51921;51.518;-3.188;2022-10-14T09:45:04;100711.97;;;12.51;94.90
60817;BME280;51921;51.518;-3.188;2022-10-14T09:47:21;100714.24;;;11.46;98.42
60817;BME280;51921;51.518;-3.188;2022-10-14T09:49:47;100717.43;;;11.26;100.00
60817;BME280;51921;51.518;-3.188;2022-10-14T09:52:19;100713.98;;;12.11;97.34
60817;BME280;51921;51.518;-3.188;2022-10-14T09:54:37;100717.29;;;12.91;93.77
60817;BME280;51921;51.518;-3.188;2022-10-14T09:57:05;100724.51;;;12.45;98.37
60817;BME280;51921;51.518;-3.188;2022-10-14T09:59:28;100724.52;;;11.53;100.00
60817;BME280;51921;51.518;-3.188;2022-10-14T10:01:55;100723.76;;;11.86;100.00
60817;BME280;51921;51.518;-3.188;2022-10-14T10:04:32;100721.94;;;12.66;100.00
60817;BME280;51921;51.518;-3.188;2022-10-14T10:06:50;100723.33;;;12.43;98.57
60817;BME280;51921;51.518;-3.188;2022-10-14T10:09:16;100721.48;;;12.52;98.66
60817;BME280;51921;51.518;-3.188;2022-10-14T10:11:37;100709.93;;;12.85;96.34
60817;BME280;51921;51.518;-3.188;2022-10-14T10:14:15;100711.51;;;13.08;97.66
60817;BME280;51921;51.518;-3.188;2022-10-14T10:16:28;100715.75;;;12.86;100.00
60817;BME280;51921;51.518;-3.188;2022-10-14T10:18:53;100710.80;;;11.10;100.00
60817;BME280;51921;51.518;-3.188;2022-10-14T10:21:22;100706.20;;;11.18;100.00
60817;BME280;51921;51.518;-3.188;2022-10-14T10:23:50;100704.27;;;10.62;100.00
60817;BME280;51921;51.518;-3.188;2022-10-14T10:26:14;100695.72;;;10.72;100.00
60817;BME280;51921;51.518;-3.188;2022-10-14T10:28:33;100688.97;;;10.77;100.00
60817;BME280;51921;51.518;-3.188;2022-10-14T10:31:05;100684.51;;;10.77;100.00
60817;BME280;51921;51.518;-3.188;2022-10-14T10:33:31;100685.71;;;11.59;100.00
60817;BME280;51921;51.518;-3.188;2022-10-14T10:35:59;100682.75;;;12.64;99.69
60817;BME280;51921;51.518;-3.188;2022-10-14T10:38:21;100679.25;;;13.90;93.44
60817;BME280;51921;51.518;-3.188;2022-10-14T10:40:46;100681.70;;;13.76;89.83
60817;BME280;51921;51.518;-3.188;2022-10-14T10:45:42;100682.24;;;14.58;84.87
60817;BME280;51921;51.518;-3.188;2022-10-14T10:48:00;100682.38;;;12.94;92.15
60817;BME280;51921;51.518;-3.188;2022-10-14T10:50:29;100673.08;;;15.33;87.99
60817;BME280;51921;51.518;-3.188;2022-10-14T10:53:00;100677.08;;;14.41;89.43
60817;BME280;51921;51.518;-3.188;2022-10-14T10:55:24;100671.31;;;15.01;83.55
60817;BME280;51921;51.518;-3.188;2022-10-14T10:57:50;100673.09;;;14.20;86.47
60817;BME280;51921;51.518;-3.188;2022-10-14T11:00:12;100670.21;;;15.20;83.92
60817;BME280;51921;51.518;-3.188;2022-10-14T11:02:48;100665.99;;;14.61;83.90
60817;BME280;51921;51.518;-3.188;2022-10-14T11:05:07;100673.06;;;14.07;88.49
60817;BME280;51921;51.518;-3.188;2022-10-14T11:07:22;100675.91;;;14.14;91.59
60817;BME280;51921;51.518;-3.188;2022-10-14T11:09:51;100668.30;;;15.16;86.63
60817;BME280;51921;51.518;-3.188;2022-10-14T11:12:17;100667.19;;;14.29;87.79
60817;BME280;51921;51.518;-3.188;2022-10-14T11:14:54;100667.68;;;16.47;78.77
60817;BME280;51921;51.518;-3.188;2022-10-14T11:17:06;100665.14;;;14.97;81.87
60817;BME280;51921;51.518;-3.188;2022-10-14T11:19:34;100658.84;;;15.76;79.90
60817;BME280;51921;51.518;-3.188;2022-10-14T11:21:57;100654.46;;;16.14;76.74
60817;BME280;51921;51.518;-3.188;2022-10-14T11:24:24;100655.47;;;16.54;76.92
60817;BME280;51921;51.518;-3.188;2022-10-14T11:26:58;100648.62;;;17.09;73.17
60817;BME280;51921;51.518;-3.188;2022-10-14T11:29:18;100640.87;;;16.28;76.66
60817;BME280;51921;51.518;-3.188;2022-10-14T11:31:39;100640.49;;;15.91;80.04
60817;BME280;51921;51.518;-3.188;2022-10-14T11:34:15;100639.44;;;15.38;82.91
60817;BME280;51921;51.518;-3.188;2022-10-14T11:36:30;100628.55;;;15.95;78.32
60817;BME280;51921;51.518;-3.188;2022-10-14T11:41:24;100618.26;;;15.75;77.31
60817;BME280;51921;51.518;-3.188;2022-10-14T11:43:46;100617.97;;;16.88;72.37
60817;BME280;51921;51.518;-3.188;2022-10-14T11:46:09;100613.97;;;16.92;73.98
60817;BME280;51921;51.518;-3.188;2022-10-14T11:48:36;100607.86;;;16.69;73.06
60817;BME280;51921;51.518;-3.188;2022-10-14T11:51:04;100608.57;;;15.59;75.92
60817;BME280;51921;51.518;-3.188;2022-10-14T11:53:31;100607.00;;;15.80;75.88
60817;BME280;51921;51.518;-3.188;2022-10-14T11:55:54;100607.15;;;16.29;73.79
60817;BME280;51921;51.518;-3.188;2022-10-14T11:58:16;100606.38;;;14.91;78.64
60817;BME280;51921;51.518;-3.188;2022-10-14T12:00:40;100604.05;;;14.20;81.51
60817;BME280;51921;51.518;-3.188;2022-10-14T12:03:11;100608.16;;;15.33;80.23
60817;BME280;51921;51.518;-3.188;2022-10-14T12:05:36;100600.85;;;14.60;82.90
60817;BME280;51921;51.518;-3.188;2022-10-14T12:08:03;100590.18;;;14.19;83.15
60817;BME280;51921;51.518;-3.188;2022-10-14T12:10:24;100586.99;;;15.91;78.90
60817;BME280;51921;51.518;-3.188;2022-10-14T12:12:45;100589.51;;;15.28;78.78
60817;BME280;51921;51.518;-3.188;2022-10-14T12:15:16;100591.11;;;15.77;78.60
60817;BME280;51921;51.518;-3.188;2022-10-14T12:17:42;100594.92;;;15.33;78.87
60817;BME280;51921;51.518;-3.188;2022-10-14T12:20:12;100587.34;;;14.34;82.18
60817;BME280;51921;51.518;-3.188;2022-10-14T12:22:29;100580.83;;;14.30;84.21
60817;BME280;51921;51.518;-3.188;2022-10-14T12:24:54;100580.53;;;15.19;79.55
60817;BME280;51921;51.518;-3.188;2022-10-14T12:27:19;100577.75;;;14.08;82.50
60817;BME280;51921;51.518;-3.188;2022-10-14T12:29:44;100576.94;;;13.02;88.14
60817;BME280;51921;51.518;-3.188;2022-10-14T12:32:17;100566.63;;;14.84;83.68
60817;BME280;51921;51.518;-3.188;2022-10-14T12:34:36;100564.39;;;14.34;85.87
60817;BME280;51921;51.518;-3.188;2022-10-14T12:36:59;100560.23;;;14.43;84.25